sensor_id;sensor_type;location;lat;lon;timestamp;P1;durP1;ratioP1;P2;durP2;ratioP2
6095;SDS011;25081;42.698;23.298;2024-03-07T00:01:00;28.93;;;21.47;;
6095;SDS011;25081;42.698;23.298;2024-03-07T00:03:09;30.72;;;21.12;;
6095;SDS011;25081;42.698;23.298;2024-03-07T00:05:18;34.75;;;22.10;;
6095;SDS011;25081;42.698;23.298;2024-03-07T00:07:26;29.57;;;21.25;;
6095;SDS011;25081;42.698;23.298;2024-03-07T00:09:35;29.50;;;22.45;;
6095;SDS011;25081;42.698;23.298;2024-03-07T00:11:44;35.25;;;21.68;;
6095;SDS011;25081;42.698;23.298;2024-03-07T00:13:53;31.50;;;21.00;;
6095;SDS011;25081;42.698;23.298;2024-03-07T00:16:02;32.17;;;20.52;;
6095;SDS011;25081;42.698;23.298;2024-03-07T00:18:10;30.30;;;19.70;;
6095;SDS011;25081;42.698;23.298;2024-03-07T00:20:19;29.60;;;19.55;;
6095;SDS011;25081;42.698;23.298;2024-03-07T00:22:28;28.62;;;20.85;;
6095;SDS011;25081;42.698;23.298;2024-03-07T00:24:37;30.17;;;20.55;;
6095;SDS011;25081;42.698;23.298;2024-03-07T00:26:46;25.43;;;18.65;;
6095;SDS011;25081;42.698;23.298;2024-03-07T00:28:55;32.60;;;21.85;;
6095;SDS011;25081;42.698;23.298;2024-03-07T00:31:04;28.32;;;18.70;;
6095;SDS011;25081;42.698;23.298;2024-03-07T00:33:14;30.48;;;20.20;;
6095;SDS011;25081;42.698;23.298;2024-03-07T00:35:23;27.60;;;19.52;;
6095;SDS011;25081;42.698;23.298;2024-03-07T00:37:32;33.08;;;19.90;;
6095;SDS011;25081;42.698;23.298;2024-03-07T00:39:41;28.02;;;20.00;;
6095;SDS011;25081;42.698;23.298;2024-03-07T00:41:50;29.48;;;18.45;;
6095;SDS011;25081;42.698;23.298;2024-03-07T00:43:59;29.63;;;21.07;;
6095;SDS011;25081;42.698;23.298;2024-03-07T00:46:08;24.18;;;14.30;;
6095;SDS011;25081;42.698;23.298;2024-03-07T00:48:17;28.07;;;18.45;;
6095;SDS011;25081;42.698;23.298;2024-03-07T00:50:25;24.15;;;15.88;;
6095;SDS011;25081;42.698;23.298;2024-03-07T00:52:34;25.35;;;15.43;;
6095;SDS011;25081;42.698;23.298;2024-03-07T00:54:43;22.10;;;16.37;;
6095;SDS011;25081;42.698;23.298;2024-03-07T00:56:52;20.48;;;12.60;;
6095;SDS011;25081;42.698;23.298;2024-03-07T00:59:01;19.48;;;13.22;;
6095;SDS011;25081;42.698;23.298;2024-03-07T01:01:10;24.10;;;14.10;;
6095;SDS011;25081;42.698;23.298;2024-03-07T01:03:18;28.25;;;18.62;;
6095;SDS011;25081;42.698;23.298;2024-03-07T01:05:27;30.25;;;19.37;;
6095;SDS011;25081;42.698;23.298;2024-03-07T01:07:36;25.82;;;17.85;;
6095;SDS011;25081;42.698;23.298;2024-03-07T01:09:45;28.92;;;19.52;;
6095;SDS011;25081;42.698;23.298;2024-03-07T01:11:54;31.55;;;21.52;;
6095;SDS011;25081;42.698;23.298;2024-03-07T01:14:02;32.33;;;20.88;;
6095;SDS011;25081;42.698;23.298;2024-03-07T01:16:11;31.97;;;20.17;;
6095;SDS011;25081;42.698;23.298;2024-03-07T01:18:20;28.90;;;19.07;;
6095;SDS011;25081;42.698;23.298;2024-03-07T01:20:29;31.35;;;19.62;;
6095;SDS011;25081;42.698;23.298;2024-03-07T01:22:38;27.82;;;19.37;;
6095;SDS011;25081;42.698;23.298;2024-03-07T01:24:47;30.45;;;17.55;;
6095;SDS011;25081;42.698;23.298;2024-03-07T01:26:55;24.90;;;18.27;;
6095;SDS011;25081;42.698;23.298;2024-03-07T01:29:04;29.35;;;19.07;;
6095;SDS011;25081;42.698;23.298;2024-03-07T01:31:13;25.25;;;14.98;;
6095;SDS011;25081;42.698;23.298;2024-03-07T01:33:22;24.98;;;17.23;;
6095;SDS011;25081;42.698;23.298;2024-03-07T01:35:30;22.82;;;16.40;;
6095;SDS011;25081;42.698;23.298;2024-03-07T01:37:39;29.67;;;17.17;;
6095;SDS011;25081;42.698;23.298;2024-03-07T01:39:48;26.20;;;17.65;;
6095;SDS011;25081;42.698;23.298;2024-03-07T01:41:57;25.40;;;17.35;;
6095;SDS011;25081;42.698;23.298;2024-03-07T01:44:06;26.48;;;17.17;;
6095;SDS011;25081;42.698;23.298;2024-03-07T01:46:15;28.57;;;17.85;;
6095;SDS011;25081;42.698;23.298;2024-03-07T01:48:25;24.57;;;16.85;;
6095;SDS011;25081;42.698;23.298;2024-03-07T01:50:34;27.58;;;16.65;;
6095;SDS011;25081;42.698;23.298;2024-03-07T01:52:42;27.17;;;17.20;;
6095;SDS011;25081;42.698;23.298;2024-03-07T01:54:51;27.62;;;18.37;;
6095;SDS011;25081;42.698;23.298;2024-03-07T01:57:00;28.40;;;19.80;;
6095;SDS011;25081;42.698;23.298;2024-03-07T01:59:10;30.40;;;18.90;;
6095;SDS011;25081;42.698;23.298;2024-03-07T02:01:19;24.70;;;17.30;;
6095;SDS011;25081;42.698;23.298;2024-03-07T02:03:27;29.40;;;19.23;;
6095;SDS011;25081;42.698;23.298;2024-03-07T02:05:36;27.82;;;18.10;;
6095;SDS011;25081;42.698;23.298;2024-03-07T02:07:45;25.43;;;17.12;;
6095;SDS011;25081;42.698;23.298;2024-03-07T02:09:59;28.05;;;17.73;;
6095;SDS011;25081;42.698;23.298;2024-03-07T02:12:08;30.35;;;18.12;;
6095;SDS011;25081;42.698;23.298;2024-03-07T02:14:17;25.92;;;17.45;;
6095;SDS011;25081;42.698;23.298;2024-03-07T02:16:26;26.35;;;16.37;;
6095;SDS011;25081;42.698;23.298;2024-03-07T02:18:35;22.32;;;15.50;;
6095;SDS011;25081;42.698;23.298;2024-03-07T02:20:44;25.57;;;17.75;;
6095;SDS011;25081;42.698;23.298;2024-03-07T02:22:53;23.00;;;16.50;;
6095;SDS011;25081;42.698;23.298;2024-03-07T02:25:02;25.15;;;17.32;;
6095;SDS011;25081;42.698;23.298;2024-03-07T02:27:11;24.95;;;17.15;;
6095;SDS011;25081;42.698;23.298;2024-03-07T02:29:19;23.50;;;16.25;;
6095;SDS011;25081;42.698;23.298;2024-03-07T02:31:28;26.33;;;17.25;;
6095;SDS011;25081;42.698;23.298;2024-03-07T02:33:42;27.62;;;19.25;;
6095;SDS011;25081;42.698;23.298;2024-03-07T02:35:51;26.37;;;17.12;;
6095;SDS011;25081;42.698;23.298;2024-03-07T02:37:59;22.95;;;16.75;;
6095;SDS011;25081;42.698;23.298;2024-03-07T02:40:09;24.47;;;14.30;;
6095;SDS011;25081;42.698;23.298;2024-03-07T02:42:19;20.95;;;13.10;;
6095;SDS011;25081;42.698;23.298;2024-03-07T02:44:27;18.07;;;10.85;;
6095;SDS011;25081;42.698;23.298;2024-03-07T02:46:36;13.68;;;7.65;;
6095;SDS011;25081;42.698;23.298;2024-03-07T02:48:45;7.00;;;4.20;;
6095;SDS011;25081;42.698;23.298;2024-03-07T02:50:54;6.65;;;4.80;;
6095;SDS011;25081;42.698;23.298;2024-03-07T02:53:03;6.03;;;3.90;;
6095;SDS011;25081;42.698;23.298;2024-03-07T02:55:12;7.15;;;3.70;;
6095;SDS011;25081;42.698;23.298;2024-03-07T02:57:21;5.03;;;3.60;;
6095;SDS011;25081;42.698;23.298;2024-03-07T02:59:29;5.15;;;3.50;;
6095;SDS011;25081;42.698;23.298;2024-03-07T03:01:38;3.95;;;3.27;;
6095;SDS011;25081;42.698;23.298;2024-03-07T03:03:47;4.12;;;2.75;;
6095;SDS011;25081;42.698;23.298;2024-03-07T03:05:55;4.67;;;3.12;;
6095;SDS011;25081;42.698;23.298;2024-03-07T03:08:05;4.97;;;3.33;;
6095;SDS011;25081;42.698;23.298;2024-03-07T03:10:14;4.67;;;3.67;;
6095;SDS011;25081;42.698;23.298;2024-03-07T03:12:23;5.30;;;3.67;;
6095;SDS011;25081;42.698;23.298;2024-03-07T03:14:32;5.45;;;4.65;;
6095;SDS011;25081;42.698;23.298;2024-03-07T03:16:42;7.17;;;5.03;;
6095;SDS011;25081;42.698;23.298;2024-03-07T03:18:50;11.78;;;7.53;;
6095;SDS011;25081;42.698;23.298;2024-03-07T03:20:59;16.70;;;10.00;;
6095;SDS011;25081;42.698;23.298;2024-03-07T03:23:08;14.18;;;9.53;;
6095;SDS011;25081;42.698;23.298;2024-03-07T03:25:17;14.40;;;9.63;;
6095;SDS011;25081;42.698;23.298;2024-03-07T03:27:26;15.63;;;10.53;;
6095;SDS011;25081;42.698;23.298;2024-03-07T03:29:35;13.03;;;10.25;;
6095;SDS011;25081;42.698;23.298;2024-03-07T03:31:44;15.88;;;10.80;;
6095;SDS011;25081;42.698;23.298;2024-03-07T03:33:52;13.98;;;9.83;;
6095;SDS011;25081;42.698;23.298;2024-03-07T03:36:01;15.58;;;11.38;;
6095;SDS011;25081;42.698;23.298;2024-03-07T03:38:10;17.75;;;10.35;;
6095;SDS011;25081;42.698;23.298;2024-03-07T03:40:19;14.35;;;9.35;;
6095;SDS011;25081;42.698;23.298;2024-03-07T03:42:28;13.15;;;8.03;;
6095;SDS011;25081;42.698;23.298;2024-03-07T03:44:37;13.85;;;8.33;;
6095;SDS011;25081;42.698;23.298;2024-03-07T03:46:46;9.80;;;7.60;;
6095;SDS011;25081;42.698;23.298;2024-03-07T03:48:55;10.35;;;7.45;;
6095;SDS011;25081;42.698;23.298;2024-03-07T03:51:04;8.55;;;6.50;;
6095;SDS011;25081;42.698;23.298;2024-03-07T03:53:12;8.25;;;5.85;;
6095;SDS011;25081;42.698;23.298;2024-03-07T03:55:21;9.25;;;5.90;;
6095;SDS011;25081;42.698;23.298;2024-03-07T03:57:30;6.08;;;4.85;;
6095;SDS011;25081;42.698;23.298;2024-03-07T03:59:39;5.28;;;3.77;;
6095;SDS011;25081;42.698;23.298;2024-03-07T04:01:51;9.40;;;4.67;;
6095;SDS011;25081;42.698;23.298;2024-03-07T04:03:59;5.78;;;4.42;;
6095;SDS011;25081;42.698;23.298;2024-03-07T04:06:08;5.70;;;3.98;;
6095;SDS011;25081;42.698;23.298;2024-03-07T04:08:17;4.58;;;3.35;;
6095;SDS011;25081;42.698;23.298;2024-03-07T04:10:27;5.08;;;3.47;;
6095;SDS011;25081;42.698;23.298;2024-03-07T04:12:37;4.00;;;3.37;;
6095;SDS011;25081;42.698;23.298;2024-03-07T04:14:45;4.65;;;3.02;;
6095;SDS011;25081;42.698;23.298;2024-03-07T04:16:53;4.58;;;3.00;;
6095;SDS011;25081;42.698;23.298;2024-03-07T04:19:02;3.80;;;2.50;;
6095;SDS011;25081;42.698;23.298;2024-03-07T04:21:11;3.10;;;2.62;;
6095;SDS011;25081;42.698;23.298;2024-03-07T04:23:20;7.12;;;3.70;;
6095;SDS011;25081;42.698;23.298;2024-03-07T04:25:28;4.55;;;3.60;;
6095;SDS011;25081;42.698;23.298;2024-03-07T04:27:38;5.00;;;3.98;;
6095;SDS011;25081;42.698;23.298;2024-03-07T04:29:46;5.28;;;3.40;;
6095;SDS011;25081;42.698;23.298;2024-03-07T04:31:55;3.60;;;2.30;;
6095;SDS011;25081;42.698;23.298;2024-03-07T04:34:04;2.52;;;2.20;;
6095;SDS011;25081;42.698;23.298;2024-03-07T04:36:12;3.17;;;2.00;;
6095;SDS011;25081;42.698;23.298;2024-03-07T04:38:21;3.90;;;2.20;;
6095;SDS011;25081;42.698;23.298;2024-03-07T04:40:30;3.37;;;2.52;;
6095;SDS011;25081;42.698;23.298;2024-03-07T04:42:39;3.42;;;2.40;;
6095;SDS011;25081;42.698;23.298;2024-03-07T04:44:48;4.78;;;3.30;;
6095;SDS011;25081;42.698;23.298;2024-03-07T04:46:57;4.58;;;3.30;;
6095;SDS011;25081;42.698;23.298;2024-03-07T04:49:05;5.62;;;3.58;;
6095;SDS011;25081;42.698;23.298;2024-03-07T04:51:14;5.90;;;3.50;;
6095;SDS011;25081;42.698;23.298;2024-03-07T04:53:23;5.45;;;3.98;;
6095;SDS011;25081;42.698;23.298;2024-03-07T04:55:32;4.87;;;3.50;;
6095;SDS011;25081;42.698;23.298;2024-03-07T04:57:40;5.35;;;3.35;;
6095;SDS011;25081;42.698;23.298;2024-03-07T04:59:49;6.15;;;3.85;;
6095;SDS011;25081;42.698;23.298;2024-03-07T05:01:58;4.75;;;3.67;;
6095;SDS011;25081;42.698;23.298;2024-03-07T05:04:07;8.80;;;3.80;;
6095;SDS011;25081;42.698;23.298;2024-03-07T05:06:16;4.35;;;3.40;;
6095;SDS011;25081;42.698;23.298;2024-03-07T05:08:24;4.90;;;2.80;;
6095;SDS011;25081;42.698;23.298;2024-03-07T05:10:33;3.58;;;3.12;;
6095;SDS011;25081;42.698;23.298;2024-03-07T05:12:42;5.97;;;2.37;;
6095;SDS011;25081;42.698;23.298;2024-03-07T05:14:51;3.62;;;2.22;;
6095;SDS011;25081;42.698;23.298;2024-03-07T05:16:59;4.35;;;3.02;;
6095;SDS011;25081;42.698;23.298;2024-03-07T05:19:14;4.72;;;3.00;;
6095;SDS011;25081;42.698;23.298;2024-03-07T05:21:23;5.10;;;3.75;;
6095;SDS011;25081;42.698;23.298;2024-03-07T05:23:37;6.17;;;3.40;;
6095;SDS011;25081;42.698;23.298;2024-03-07T05:25:46;5.05;;;3.10;;
6095;SDS011;25081;42.698;23.298;2024-03-07T05:27:55;3.37;;;2.35;;
6095;SDS011;25081;42.698;23.298;2024-03-07T05:30:05;4.42;;;2.55;;
6095;SDS011;25081;42.698;23.298;2024-03-07T05:32:21;3.35;;;1.95;;
6095;SDS011;25081;42.698;23.298;2024-03-07T05:34:30;4.00;;;3.20;;
6095;SDS011;25081;42.698;23.298;2024-03-07T05:36:39;8.55;;;4.60;;
6095;SDS011;25081;42.698;23.298;2024-03-07T05:38:51;3.00;;;1.77;;
6095;SDS011;25081;42.698;23.298;2024-03-07T05:41:00;5.22;;;3.95;;
6095;SDS011;25081;42.698;23.298;2024-03-07T05:43:08;6.33;;;4.20;;
6095;SDS011;25081;42.698;23.298;2024-03-07T05:45:17;4.70;;;3.87;;
6095;SDS011;25081;42.698;23.298;2024-03-07T05:47:26;5.40;;;4.37;;
6095;SDS011;25081;42.698;23.298;2024-03-07T05:49:35;6.03;;;4.95;;
6095;SDS011;25081;42.698;23.298;2024-03-07T05:51:44;7.12;;;4.10;;
6095;SDS011;25081;42.698;23.298;2024-03-07T05:53:53;7.35;;;5.28;;
6095;SDS011;25081;42.698;23.298;2024-03-07T05:56:01;6.03;;;4.97;;
6095;SDS011;25081;42.698;23.298;2024-03-07T05:58:11;5.42;;;4.33;;
6095;SDS011;25081;42.698;23.298;2024-03-07T06:00:20;5.95;;;4.53;;
6095;SDS011;25081;42.698;23.298;2024-03-07T06:02:29;4.78;;;3.22;;
6095;SDS011;25081;42.698;23.298;2024-03-07T06:04:38;5.20;;;3.80;;
6095;SDS011;25081;42.698;23.298;2024-03-07T06:06:47;6.62;;;4.00;;
6095;SDS011;25081;42.698;23.298;2024-03-07T06:08:55;4.83;;;3.42;;
6095;SDS011;25081;42.698;23.298;2024-03-07T06:11:04;7.50;;;4.80;;
6095;SDS011;25081;42.698;23.298;2024-03-07T06:13:13;3.80;;;2.50;;
6095;SDS011;25081;42.698;23.298;2024-03-07T06:15:22;6.55;;;4.53;;
6095;SDS011;25081;42.698;23.298;2024-03-07T06:17:31;6.25;;;5.15;;
6095;SDS011;25081;42.698;23.298;2024-03-07T06:19:39;5.90;;;4.83;;
6095;SDS011;25081;42.698;23.298;2024-03-07T06:21:48;4.05;;;3.30;;
6095;SDS011;25081;42.698;23.298;2024-03-07T06:23:57;5.95;;;4.00;;
6095;SDS011;25081;42.698;23.298;2024-03-07T06:26:06;4.72;;;3.45;;
6095;SDS011;25081;42.698;23.298;2024-03-07T06:28:19;8.68;;;4.45;;
6095;SDS011;25081;42.698;23.298;2024-03-07T06:30:28;4.20;;;3.30;;
6095;SDS011;25081;42.698;23.298;2024-03-07T06:32:37;5.03;;;4.08;;
6095;SDS011;25081;42.698;23.298;2024-03-07T06:34:46;6.47;;;4.47;;
6095;SDS011;25081;42.698;23.298;2024-03-07T06:36:55;8.55;;;5.15;;
6095;SDS011;25081;42.698;23.298;2024-03-07T06:39:04;6.62;;;4.55;;
6095;SDS011;25081;42.698;23.298;2024-03-07T06:41:12;7.67;;;5.75;;
6095;SDS011;25081;42.698;23.298;2024-03-07T06:43:21;7.15;;;5.60;;
6095;SDS011;25081;42.698;23.298;2024-03-07T06:45:30;6.95;;;5.20;;
6095;SDS011;25081;42.698;23.298;2024-03-07T06:47:39;18.50;;;10.45;;
6095;SDS011;25081;42.698;23.298;2024-03-07T06:49:48;6.58;;;4.90;;
6095;SDS011;25081;42.698;23.298;2024-03-07T06:51:57;6.65;;;4.97;;
6095;SDS011;25081;42.698;23.298;2024-03-07T06:54:05;6.50;;;4.37;;
6095;SDS011;25081;42.698;23.298;2024-03-07T06:56:14;6.60;;;4.45;;
6095;SDS011;25081;42.698;23.298;2024-03-07T06:58:23;6.62;;;4.85;;
6095;SDS011;25081;42.698;23.298;2024-03-07T07:00:32;5.10;;;4.20;;
6095;SDS011;25081;42.698;23.298;2024-03-07T07:02:42;5.25;;;3.45;;
6095;SDS011;25081;42.698;23.298;2024-03-07T07:04:51;6.28;;;4.25;;
6095;SDS011;25081;42.698;23.298;2024-03-07T07:06:59;9.05;;;4.15;;
6095;SDS011;25081;42.698;23.298;2024-03-07T07:09:08;4.05;;;3.25;;
6095;SDS011;25081;42.698;23.298;2024-03-07T07:11:17;8.45;;;4.75;;
6095;SDS011;25081;42.698;23.298;2024-03-07T07:13:25;6.45;;;4.62;;
6095;SDS011;25081;42.698;23.298;2024-03-07T07:15:34;6.62;;;4.60;;
6095;SDS011;25081;42.698;23.298;2024-03-07T07:17:44;1.60;;;1.30;;
6095;SDS011;25081;42.698;23.298;2024-03-07T07:19:52;5.37;;;3.50;;
6095;SDS011;25081;42.698;23.298;2024-03-07T07:22:01;8.23;;;4.47;;
6095;SDS011;25081;42.698;23.298;2024-03-07T07:24:10;4.67;;;3.50;;
6095;SDS011;25081;42.698;23.298;2024-03-07T07:26:18;5.03;;;3.80;;
6095;SDS011;25081;42.698;23.298;2024-03-07T07:28:27;4.58;;;3.50;;
6095;SDS011;25081;42.698;23.298;2024-03-07T07:30:36;6.15;;;4.37;;
6095;SDS011;25081;42.698;23.298;2024-03-07T07:32:45;7.03;;;4.72;;
6095;SDS011;25081;42.698;23.298;2024-03-07T07:34:53;5.30;;;4.25;;
6095;SDS011;25081;42.698;23.298;2024-03-07T07:37:02;5.58;;;4.15;;
6095;SDS011;25081;42.698;23.298;2024-03-07T07:39:11;9.60;;;5.33;;
6095;SDS011;25081;42.698;23.298;2024-03-07T07:41:19;5.55;;;4.08;;
6095;SDS011;25081;42.698;23.298;2024-03-07T07:43:28;5.25;;;3.50;;
6095;SDS011;25081;42.698;23.298;2024-03-07T07:45:37;4.75;;;3.72;;
6095;SDS011;25081;42.698;23.298;2024-03-07T07:47:47;5.75;;;3.80;;
6095;SDS011;25081;42.698;23.298;2024-03-07T07:49:55;5.78;;;4.15;;
6095;SDS011;25081;42.698;23.298;2024-03-07T07:52:04;5.83;;;4.55;;
6095;SDS011;25081;42.698;23.298;2024-03-07T07:54:13;5.72;;;4.17;;
6095;SDS011;25081;42.698;23.298;2024-03-07T07:56:21;6.95;;;5.00;;
6095;SDS011;25081;42.698;23.298;2024-03-07T07:58:30;5.97;;;3.95;;
6095;SDS011;25081;42.698;23.298;2024-03-07T08:00:39;6.37;;;4.55;;
6095;SDS011;25081;42.698;23.298;2024-03-07T08:02:54;5.35;;;4.85;;
6095;SDS011;25081;42.698;23.298;2024-03-07T08:05:03;6.33;;;4.90;;
6095;SDS011;25081;42.698;23.298;2024-03-07T08:07:12;6.92;;;4.92;;
6095;SDS011;25081;42.698;23.298;2024-03-07T08:09:21;5.08;;;4.08;;
6095;SDS011;25081;42.698;23.298;2024-03-07T08:11:30;6.37;;;3.92;;
6095;SDS011;25081;42.698;23.298;2024-03-07T08:13:38;11.68;;;4.20;;
6095;SDS011;25081;42.698;23.298;2024-03-07T08:15:48;5.55;;;4.10;;
6095;SDS011;25081;42.698;23.298;2024-03-07T08:17:57;7.47;;;4.67;;
6095;SDS011;25081;42.698;23.298;2024-03-07T08:20:06;7.22;;;4.70;;
6095;SDS011;25081;42.698;23.298;2024-03-07T08:22:15;8.25;;;5.78;;
6095;SDS011;25081;42.698;23.298;2024-03-07T08:24:24;8.33;;;5.92;;
6095;SDS011;25081;42.698;23.298;2024-03-07T08:26:33;4.90;;;3.90;;
6095;SDS011;25081;42.698;23.298;2024-03-07T08:28:42;5.75;;;3.85;;
6095;SDS011;25081;42.698;23.298;2024-03-07T08:30:51;6.22;;;4.60;;
6095;SDS011;25081;42.698;23.298;2024-03-07T08:32:59;5.40;;;4.28;;
6095;SDS011;25081;42.698;23.298;2024-03-07T08:35:09;6.45;;;4.37;;
6095;SDS011;25081;42.698;23.298;2024-03-07T08:37:18;5.15;;;4.20;;
6095;SDS011;25081;42.698;23.298;2024-03-07T08:39:26;10.25;;;4.35;;
6095;SDS011;25081;42.698;23.298;2024-03-07T08:41:35;5.87;;;4.53;;
6095;SDS011;25081;42.698;23.298;2024-03-07T08:43:44;5.65;;;3.65;;
6095;SDS011;25081;42.698;23.298;2024-03-07T08:45:53;6.30;;;4.35;;
6095;SDS011;25081;42.698;23.298;2024-03-07T08:48:02;6.20;;;4.17;;
6095;SDS011;25081;42.698;23.298;2024-03-07T08:50:11;4.17;;;3.37;;
6095;SDS011;25081;42.698;23.298;2024-03-07T08:52:20;3.98;;;3.02;;
6095;SDS011;25081;42.698;23.298;2024-03-07T08:54:28;3.27;;;2.92;;
6095;SDS011;25081;42.698;23.298;2024-03-07T08:56:37;3.75;;;3.05;;
6095;SDS011;25081;42.698;23.298;2024-03-07T08:58:46;4.20;;;3.27;;
6095;SDS011;25081;42.698;23.298;2024-03-07T09:00:55;6.67;;;3.90;;
6095;SDS011;25081;42.698;23.298;2024-03-07T09:03:04;6.33;;;3.47;;
6095;SDS011;25081;42.698;23.298;2024-03-07T09:05:13;5.35;;;3.72;;
6095;SDS011;25081;42.698;23.298;2024-03-07T09:07:22;4.80;;;3.52;;
6095;SDS011;25081;42.698;23.298;2024-03-07T09:09:33;5.37;;;3.95;;
6095;SDS011;25081;42.698;23.298;2024-03-07T09:11:42;4.35;;;3.25;;
6095;SDS011;25081;42.698;23.298;2024-03-07T09:13:51;5.22;;;3.83;;
6095;SDS011;25081;42.698;23.298;2024-03-07T09:16:00;7.78;;;4.53;;
6095;SDS011;25081;42.698;23.298;2024-03-07T09:18:09;6.55;;;4.53;;
6095;SDS011;25081;42.698;23.298;2024-03-07T09:20:18;5.50;;;3.85;;
6095;SDS011;25081;42.698;23.298;2024-03-07T09:22:26;6.20;;;4.42;;
6095;SDS011;25081;42.698;23.298;2024-03-07T09:24:35;5.20;;;3.87;;
6095;SDS011;25081;42.698;23.298;2024-03-07T09:26:44;6.95;;;4.55;;
6095;SDS011;25081;42.698;23.298;2024-03-07T09:28:53;6.78;;;4.65;;
6095;SDS011;25081;42.698;23.298;2024-03-07T09:31:02;6.67;;;4.33;;
6095;SDS011;25081;42.698;23.298;2024-03-07T09:33:11;4.55;;;3.72;;
6095;SDS011;25081;42.698;23.298;2024-03-07T09:35:20;5.83;;;4.28;;
6095;SDS011;25081;42.698;23.298;2024-03-07T09:37:29;6.97;;;4.47;;
6095;SDS011;25081;42.698;23.298;2024-03-07T09:39:37;6.90;;;3.87;;
6095;SDS011;25081;42.698;23.298;2024-03-07T09:41:46;6.53;;;4.20;;
6095;SDS011;25081;42.698;23.298;2024-03-07T09:43:55;7.40;;;5.20;;
6095;SDS011;25081;42.698;23.298;2024-03-07T09:46:04;5.70;;;4.50;;
6095;SDS011;25081;42.698;23.298;2024-03-07T09:48:13;5.55;;;3.70;;
6095;SDS011;25081;42.698;23.298;2024-03-07T09:50:22;4.85;;;4.15;;
6095;SDS011;25081;42.698;23.298;2024-03-07T09:52:30;4.80;;;4.10;;
6095;SDS011;25081;42.698;23.298;2024-03-07T09:54:39;5.95;;;4.58;;
6095;SDS011;25081;42.698;23.298;2024-03-07T09:56:48;5.33;;;4.22;;
6095;SDS011;25081;42.698;23.298;2024-03-07T09:58:57;5.40;;;4.12;;
6095;SDS011;25081;42.698;23.298;2024-03-07T10:01:05;7.47;;;5.62;;
6095;SDS011;25081;42.698;23.298;2024-03-07T10:03:15;7.12;;;4.78;;
6095;SDS011;25081;42.698;23.298;2024-03-07T10:05:24;6.42;;;5.03;;
6095;SDS011;25081;42.698;23.298;2024-03-07T10:07:32;8.10;;;4.33;;
6095;SDS011;25081;42.698;23.298;2024-03-07T10:09:42;16.23;;;4.80;;
6095;SDS011;25081;42.698;23.298;2024-03-07T10:11:56;5.37;;;4.30;;
6095;SDS011;25081;42.698;23.298;2024-03-07T10:14:05;7.55;;;4.70;;
6095;SDS011;25081;42.698;23.298;2024-03-07T10:16:13;5.40;;;4.25;;
6095;SDS011;25081;42.698;23.298;2024-03-07T10:18:24;7.42;;;4.15;;
6095;SDS011;25081;42.698;23.298;2024-03-07T10:20:37;4.85;;;3.60;;
6095;SDS011;25081;42.698;23.298;2024-03-07T10:22:46;6.62;;;4.42;;
6095;SDS011;25081;42.698;23.298;2024-03-07T10:24:56;7.05;;;5.12;;
6095;SDS011;25081;42.698;23.298;2024-03-07T10:27:04;4.35;;;2.83;;
6095;SDS011;25081;42.698;23.298;2024-03-07T10:29:13;6.70;;;5.08;;
6095;SDS011;25081;42.698;23.298;2024-03-07T10:31:28;4.92;;;3.90;;
6095;SDS011;25081;42.698;23.298;2024-03-07T10:33:37;4.25;;;3.75;;
6095;SDS011;25081;42.698;23.298;2024-03-07T10:35:47;8.05;;;4.45;;
6095;SDS011;25081;42.698;23.298;2024-03-07T10:37:56;5.45;;;4.33;;
6095;SDS011;25081;42.698;23.298;2024-03-07T10:40:06;5.35;;;4.22;;
6095;SDS011;25081;42.698;23.298;2024-03-07T10:42:17;5.65;;;4.70;;
6095;SDS011;25081;42.698;23.298;2024-03-07T10:44:25;6.00;;;4.53;;
6095;SDS011;25081;42.698;23.298;2024-03-07T10:46:34;13.68;;;4.62;;
6095;SDS011;25081;42.698;23.298;2024-03-07T10:48:43;7.00;;;4.77;;
6095;SDS011;25081;42.698;23.298;2024-03-07T10:50:54;6.20;;;4.87;;
6095;SDS011;25081;42.698;23.298;2024-03-07T10:53:05;3.08;;;2.52;;
6095;SDS011;25081;42.698;23.298;2024-03-07T10:55:12;7.60;;;5.40;;
6095;SDS011;25081;42.698;23.298;2024-03-07T10:57:23;4.90;;;3.80;;
6095;SDS011;25081;42.698;23.298;2024-03-07T10:59:31;4.83;;;4.15;;
6095;SDS011;25081;42.698;23.298;2024-03-07T11:01:42;4.35;;;3.90;;
6095;SDS011;25081;42.698;23.298;2024-03-07T11:03:49;5.47;;;4.25;;
6095;SDS011;25081;42.698;23.298;2024-03-07T11:05:59;7.28;;;4.40;;
6095;SDS011;25081;42.698;23.298;2024-03-07T11:08:08;7.55;;;5.00;;
6095;SDS011;25081;42.698;23.298;2024-03-07T11:10:18;7.10;;;5.03;;
6095;SDS011;25081;42.698;23.298;2024-03-07T11:12:27;6.28;;;4.17;;
6095;SDS011;25081;42.698;23.298;2024-03-07T11:14:36;2.70;;;2.08;;
6095;SDS011;25081;42.698;23.298;2024-03-07T11:16:45;6.75;;;3.90;;
6095;SDS011;25081;42.698;23.298;2024-03-07T11:21:42;5.97;;;4.37;;
6095;SDS011;25081;42.698;23.298;2024-03-07T11:23:51;7.25;;;4.70;;
6095;SDS011;25081;42.698;23.298;2024-03-07T11:26:03;4.87;;;4.08;;
6095;SDS011;25081;42.698;23.298;2024-03-07T11:28:13;7.42;;;5.47;;
6095;SDS011;25081;42.698;23.298;2024-03-07T11:30:21;7.58;;;5.92;;
6095;SDS011;25081;42.698;23.298;2024-03-07T11:32:33;8.38;;;5.50;;
6095;SDS011;25081;42.698;23.298;2024-03-07T11:34:39;9.00;;;5.55;;
6095;SDS011;25081;42.698;23.298;2024-03-07T11:36:48;5.20;;;3.50;;
6095;SDS011;25081;42.698;23.298;2024-03-07T11:38:57;8.08;;;5.47;;
6095;SDS011;25081;42.698;23.298;2024-03-07T11:41:06;8.35;;;5.03;;
6095;SDS011;25081;42.698;23.298;2024-03-07T11:43:15;4.55;;;3.35;;
6095;SDS011;25081;42.698;23.298;2024-03-07T11:45:24;3.98;;;3.15;;
6095;SDS011;25081;42.698;23.298;2024-03-07T11:47:35;7.00;;;4.25;;
6095;SDS011;25081;42.698;23.298;2024-03-07T11:49:44;7.90;;;3.80;;
6095;SDS011;25081;42.698;23.298;2024-03-07T11:51:55;5.20;;;3.85;;
6095;SDS011;25081;42.698;23.298;2024-03-07T11:54:03;5.33;;;4.25;;
6095;SDS011;25081;42.698;23.298;2024-03-07T11:56:12;7.17;;;4.95;;
6095;SDS011;25081;42.698;23.298;2024-03-07T11:58:21;7.83;;;4.72;;
6095;SDS011;25081;42.698;23.298;2024-03-07T12:00:33;6.35;;;4.90;;
6095;SDS011;25081;42.698;23.298;2024-03-07T12:02:39;5.05;;;3.92;;
6095;SDS011;25081;42.698;23.298;2024-03-07T12:04:48;5.90;;;4.60;;
6095;SDS011;25081;42.698;23.298;2024-03-07T12:06:56;5.70;;;4.55;;
6095;SDS011;25081;42.698;23.298;2024-03-07T12:09:06;9.88;;;5.30;;
6095;SDS011;25081;42.698;23.298;2024-03-07T12:11:14;7.53;;;4.42;;
6095;SDS011;25081;42.698;23.298;2024-03-07T12:13:23;4.78;;;3.65;;
6095;SDS011;25081;42.698;23.298;2024-03-07T12:15:32;4.35;;;2.75;;
6095;SDS011;25081;42.698;23.298;2024-03-07T12:17:42;13.28;;;4.83;;
6095;SDS011;25081;42.698;23.298;2024-03-07T12:19:51;3.70;;;2.77;;
6095;SDS011;25081;42.698;23.298;2024-03-07T12:22:00;9.48;;;5.00;;
6095;SDS011;25081;42.698;23.298;2024-03-07T12:24:12;3.98;;;2.70;;
6095;SDS011;25081;42.698;23.298;2024-03-07T12:26:21;7.08;;;3.72;;
6095;SDS011;25081;42.698;23.298;2024-03-07T12:28:30;6.70;;;5.15;;
6095;SDS011;25081;42.698;23.298;2024-03-07T12:30:49;5.70;;;4.80;;
6095;SDS011;25081;42.698;23.298;2024-03-07T12:32:57;7.83;;;4.95;;
6095;SDS011;25081;42.698;23.298;2024-03-07T12:35:07;13.98;;;6.25;;
6095;SDS011;25081;42.698;23.298;2024-03-07T12:37:16;5.00;;;3.12;;
6095;SDS011;25081;42.698;23.298;2024-03-07T12:39:25;7.03;;;4.30;;
6095;SDS011;25081;42.698;23.298;2024-03-07T12:41:34;6.70;;;5.20;;
6095;SDS011;25081;42.698;23.298;2024-03-07T12:43:43;9.43;;;5.45;;
6095;SDS011;25081;42.698;23.298;2024-03-07T12:45:52;8.63;;;5.40;;
6095;SDS011;25081;42.698;23.298;2024-03-07T12:48:01;7.28;;;5.03;;
6095;SDS011;25081;42.698;23.298;2024-03-07T12:50:10;6.50;;;5.37;;
6095;SDS011;25081;42.698;23.298;2024-03-07T12:52:19;10.35;;;6.87;;
6095;SDS011;25081;42.698;23.298;2024-03-07T12:54:28;9.83;;;6.75;;